Louise S — WDE9035 — position and weather

sailwx.info

Track history (hours):
 
Tides and Currents Weather Stations Pressure Air Temp Water Temp Dewpoint Dewpoint Depression Visibility Wind Speed Wind Dir Waves Ship Positions

Louise S

Owner: CAMPBELL TRANSPORTATION COMPANY, CHARLEROI, PA. More information available from US FCC via Universal Licensing System and Coast Guard Vessel Documentation Center.

Last reported at 2015-Jun-03 01:33 UTC. Time now 2015-Jul-04 07:03 UTC.
Position N 38°57' W 084°51'.
Warning: this ship's position is 31 days out of date.

Length 45 m.

Type: Tow > 200 m length. MMSI: 367412620.

Date/timePositionNaut miles runAvg speedWind from/ knotsBaromVisibWave heightAir tempDewpointWater temp
2015-Jun-03 01:33N 38°57' W 084°51'7 6.5
2015-Jun-03 00:31N 39°03' W 084°54'7 7.0
2015-Jun-02 23:32N 39°07' W 084°47'4 4.3
2015-Jun-02 22:32N 39°06' W 084°41'0 0.1
2015-Jun-02 21:33N 39°06' W 084°41'0 0.0
2015-Jun-02 20:33N 39°06' W 084°41'0 0.0
2015-Jun-02 19:33N 39°06' W 084°41'0 0.0
2015-Jun-02 18:33N 39°06' W 084°41'0 0.0
2015-Jun-02 17:32N 39°06' W 084°41'4 4.1
2015-Jun-02 16:33N 39°04' W 084°37'6 5.6
2015-Jun-02 15:33N 39°06' W 084°30'5 4.7
2015-Jun-02 14:33N 39°03' W 084°25'2 1.6
2015-Jun-02 13:33N 39°02' W 084°23'0 0.0
2015-Jun-02 12:32N 39°02' W 084°23'0 0.0
2015-Jun-02 11:32N 39°02' W 084°23'0 0.0
2015-Jun-02 10:32N 39°02' W 084°23'0 0.0
2015-Jun-02 09:32N 39°02' W 084°23'0 0.0
2015-Jun-02 08:33N 39°02' W 084°23'5 5.2
2015-Jun-02 07:33N 38°59' W 084°18'7 6.9
2015-Jun-02 06:33N 38°53' W 084°14'6 4.7
2015-Jun-02 05:17N 38°48' W 084°10'2 2.2
2015-Jun-02 04:27N 38°47' W 084°08'  
2015-May-27 05:22N 38°46' W 083°55'9 5.1
2015-May-27 03:32N 38°47' W 084°07'3 3.0
2015-May-27 02:29N 38°48' W 084°11'1 1.4
2015-May-27 01:32N 38°48' W 084°12'0 0.3
2015-May-27 00:33N 38°48' W 084°13'5 4.7
2015-May-26 23:32N 38°53' W 084°14'5 5.5
2015-May-26 22:33N 38°57' W 084°18'6 5.6
2015-May-26 21:33N 39°02' W 084°21'5 4.5
2015-May-26 20:33N 39°05' W 084°26'3 3.1
2015-May-26 19:32N 39°06' W 084°30'4 4.2
2015-May-26 18:32N 39°05' W 084°35'0 0.1
2015-May-26 17:34N 39°05' W 084°35'0 0.1
2015-May-26 16:32N 39°05' W 084°35'0 0.2
2015-May-26 15:32N 39°05' W 084°35'0 0.0
2015-May-26 14:33N 39°05' W 084°35'4 3.9
2015-May-26 13:33N 39°06' W 084°40'5 5.0
2015-May-26 12:33N 39°09' W 084°45'13 2.0
2015-May-26 06:18N 38°57' W 084°51'3 3.1
2015-May-26 05:16N 38°54' W 084°50'  
Track history (hours):
 
Tides and Currents Weather Stations Pressure Air Temp Water Temp Dewpoint Dewpoint Depression Visibility Wind Speed Wind Dir Waves Ship Positions

Louise S

Owner: CAMPBELL TRANSPORTATION COMPANY, CHARLEROI, PA. More information available from US FCC via Universal Licensing System and Coast Guard Vessel Documentation Center.

Last reported at 2015-Jun-03 01:33 UTC. Time now 2015-Jul-04 07:03 UTC.
Position N 38°57' W 084°51'.
Warning: this ship's position is 31 days out of date.

Length 45 m.

Type: Tow > 200 m length. MMSI: 367412620.

Date/timePositionNaut miles runAvg speedWind from/ knotsBaromVisibWave heightAir tempDewpointWater temp
2015-Jun-03 01:33N 38°57' W 084°51'7 6.5
2015-Jun-03 00:31N 39°03' W 084°54'7 7.0
2015-Jun-02 23:32N 39°07' W 084°47'4 4.3
2015-Jun-02 22:32N 39°06' W 084°41'0 0.1
2015-Jun-02 21:33N 39°06' W 084°41'0 0.0
2015-Jun-02 20:33N 39°06' W 084°41'0 0.0
2015-Jun-02 19:33N 39°06' W 084°41'0 0.0
2015-Jun-02 18:33N 39°06' W 084°41'0 0.0
2015-Jun-02 17:32N 39°06' W 084°41'4 4.1
2015-Jun-02 16:33N 39°04' W 084°37'6 5.6
2015-Jun-02 15:33N 39°06' W 084°30'5 4.7
2015-Jun-02 14:33N 39°03' W 084°25'2 1.6
2015-Jun-02 13:33N 39°02' W 084°23'0 0.0
2015-Jun-02 12:32N 39°02' W 084°23'0 0.0
2015-Jun-02 11:32N 39°02' W 084°23'0 0.0
2015-Jun-02 10:32N 39°02' W 084°23'0 0.0
2015-Jun-02 09:32N 39°02' W 084°23'0 0.0
2015-Jun-02 08:33N 39°02' W 084°23'5 5.2
2015-Jun-02 07:33N 38°59' W 084°18'7 6.9
2015-Jun-02 06:33N 38°53' W 084°14'6 4.7
2015-Jun-02 05:17N 38°48' W 084°10'2 2.2
2015-Jun-02 04:27N 38°47' W 084°08'  
2015-May-27 05:22N 38°46' W 083°55'9 5.1
2015-May-27 03:32N 38°47' W 084°07'3 3.0
2015-May-27 02:29N 38°48' W 084°11'1 1.4
2015-May-27 01:32N 38°48' W 084°12'0 0.3
2015-May-27 00:33N 38°48' W 084°13'5 4.7
2015-May-26 23:32N 38°53' W 084°14'5 5.5
2015-May-26 22:33N 38°57' W 084°18'6 5.6
2015-May-26 21:33N 39°02' W 084°21'5 4.5
2015-May-26 20:33N 39°05' W 084°26'3 3.1
2015-May-26 19:32N 39°06' W 084°30'4 4.2
2015-May-26 18:32N 39°05' W 084°35'0 0.1
2015-May-26 17:34N 39°05' W 084°35'0 0.1
2015-May-26 16:32N 39°05' W 084°35'0 0.2
2015-May-26 15:32N 39°05' W 084°35'0 0.0
2015-May-26 14:33N 39°05' W 084°35'4 3.9
2015-May-26 13:33N 39°06' W 084°40'5 5.0
2015-May-26 12:33N 39°09' W 084°45'13 2.0
2015-May-26 06:18N 38°57' W 084°51'3 3.1
2015-May-26 05:16N 38°54' W 084°50'  

Dump ship's entire track history